createdAt,value
2019-04-04T00:04:49.021Z,11.45
2019-04-04T00:09:50.301Z,9.65
2019-04-04T00:14:51.821Z,13.72
2019-04-04T00:19:53.718Z,12.68
2019-04-04T00:24:55.241Z,15.50
2019-04-04T00:29:56.658Z,12.47
2019-04-04T00:35:01.291Z,12.47
2019-04-04T00:40:06.816Z,13.58
2019-04-04T00:45:10.563Z,11.30
2019-04-04T00:50:12.272Z,12.05
2019-04-04T00:55:15.565Z,13.18
2019-04-04T01:00:17.179Z,12.28
2019-04-04T01:05:19.063Z,10.80
2019-04-04T01:10:20.591Z,12.73
2019-04-04T01:15:22.055Z,10.78
2019-04-04T01:20:23.497Z,12.50
2019-04-04T01:25:26.822Z,14.23
2019-04-04T01:30:31.524Z,12.88
2019-04-04T01:35:34.628Z,15.03
2019-04-04T01:40:36.277Z,13.05
2019-04-04T01:45:57.731Z,16.52
2019-04-04T01:50:59.154Z,17.07
2019-04-04T01:56:02.010Z,16.60
2019-04-04T02:01:04.293Z,14.83
2019-04-04T02:06:05.826Z,12.20
2019-04-04T02:11:09.531Z,16.05
2019-04-04T02:16:12.604Z,13.10
2019-04-04T02:21:15.859Z,14.53
2019-04-04T02:26:19.355Z,18.10
2019-04-04T02:31:41.082Z,15.08
2019-04-04T02:36:43.102Z,16.62
2019-04-04T02:41:47.720Z,16.62
2019-04-04T02:46:48.437Z,13.72
2019-04-04T02:51:50.021Z,16.97
2019-04-04T02:56:51.773Z,13.95
2019-04-04T03:01:53.381Z,16.60
2019-04-04T03:07:13.965Z,14.78
2019-04-04T03:12:15.418Z,15.50
2019-04-04T03:17:20.083Z,16.30
2019-04-04T03:22:26.972Z,15.70
2019-04-04T03:27:27.364Z,16.95
2019-04-04T03:32:30.891Z,14.07
2019-04-04T03:37:32.256Z,17.15
2019-04-04T03:42:35.758Z,17.75
2019-04-04T03:47:43.442Z,13.98
2019-04-04T03:52:44.332Z,15.70
2019-04-04T03:57:48.136Z,16.27
2019-04-04T04:02:50.809Z,17.12
2019-04-04T04:07:52.972Z,16.65
2019-04-04T04:12:55.050Z,14.63
2019-04-04T04:17:56.430Z,16.67
2019-04-04T04:22:59.699Z,14.55
2019-04-04T04:28:03.146Z,18.75
2019-04-04T04:33:04.492Z,18.82
2019-04-04T04:38:05.948Z,17.87
2019-04-04T04:43:07.257Z,16.97
2019-04-04T04:48:08.590Z,18.15
2019-04-04T04:53:10.321Z,17.67
2019-04-04T04:58:12.097Z,16.23
2019-04-04T05:03:13.588Z,18.65
2019-04-04T05:08:15.463Z,17.40
2019-04-04T05:13:17.373Z,18.85
2019-04-04T05:18:18.921Z,17.90
2019-04-04T05:23:22.439Z,20.23
2019-04-04T05:28:23.986Z,19.30
2019-04-04T05:33:27.469Z,17.00
2019-04-04T05:38:29.186Z,20.37
2019-04-04T05:43:30.911Z,20.85
2019-04-04T05:48:36.246Z,21.05
2019-04-04T05:53:38.061Z,21.20
2019-04-04T05:58:39.348Z,21.60
2019-04-04T06:03:41.100Z,22.98
2019-04-04T06:08:43.428Z,27.62
2019-04-04T06:13:45.002Z,24.90
2019-04-04T06:18:49.067Z,20.15
2019-04-04T06:23:49.789Z,22.73
2019-04-04T06:28:51.306Z,23.22
2019-04-04T06:33:52.719Z,19.70
2019-04-04T06:38:54.581Z,21.45
2019-04-04T06:43:56.336Z,20.97
2019-04-04T06:48:57.825Z,19.12
2019-04-04T06:53:59.667Z,16.37
2019-04-04T06:59:01.776Z,18.77
2019-04-04T07:04:03.266Z,17.07
2019-04-04T07:09:06.547Z,18.48
2019-04-04T07:14:08.150Z,15.53
2019-04-04T07:19:09.608Z,15.88
2019-04-04T07:24:11.161Z,16.25
2019-04-04T07:29:12.602Z,15.80
2019-04-04T07:34:14.307Z,16.10
2019-04-04T07:39:15.975Z,16.20
2019-04-04T07:44:17.661Z,15.70
2019-04-04T07:49:21.131Z,15.23
2019-04-04T07:54:24.382Z,14.93
2019-04-04T07:59:25.898Z,16.52
2019-04-04T08:04:27.433Z,15.72
2019-04-04T08:09:28.914Z,16.75
2019-04-04T08:14:30.570Z,18.40
2019-04-04T08:19:32.051Z,12.82
2019-04-04T08:24:33.529Z,16.42
2019-04-04T08:29:34.846Z,14.70
2019-04-04T08:34:37.236Z,14.07
2019-04-04T08:39:38.666Z,14.58
2019-04-04T08:44:40.853Z,15.18
2019-04-04T08:49:42.389Z,16.10
2019-04-04T08:54:45.495Z,12.88
2019-04-04T08:59:46.939Z,15.20
2019-04-04T09:04:51.310Z,14.25
2019-04-04T09:09:52.953Z,13.00
2019-04-04T09:14:54.470Z,14.58
2019-04-04T09:20:14.741Z,13.32
2019-04-04T09:25:16.850Z,13.25
2019-04-04T09:30:18.888Z,14.03
2019-04-04T09:35:20.504Z,12.78
2019-04-04T09:40:21.893Z,12.55
2019-04-04T09:45:26.755Z,13.75
2019-04-04T09:50:28.172Z,12.28
2019-04-04T09:55:29.628Z,11.93
2019-04-04T10:00:33.001Z,11.85
2019-04-04T10:05:34.878Z,12.00
2019-04-04T10:10:36.452Z,14.35
2019-04-04T10:15:38.043Z,12.53
2019-04-04T10:20:39.970Z,10.78
2019-04-04T10:25:41.456Z,11.30
2019-04-04T10:30:42.876Z,11.95
2019-04-04T10:35:44.197Z,11.68
2019-04-04T10:40:45.615Z,10.25
2019-04-04T10:45:47.011Z,11.55
2019-04-04T10:50:48.541Z,14.03
2019-04-04T10:55:51.442Z,10.98
2019-04-04T11:00:54.444Z,9.83
2019-04-04T11:05:55.778Z,10.03
2019-04-04T11:10:58.940Z,7.75
2019-04-04T11:16:00.547Z,9.90
2019-04-04T11:21:02.041Z,12.78
2019-04-04T11:26:03.790Z,8.53
2019-04-04T11:31:05.249Z,11.12
2019-04-04T11:36:06.828Z,8.83
2019-04-04T11:41:08.535Z,8.70
2019-04-04T11:46:10.263Z,9.10
2019-04-04T11:51:12.017Z,10.00
2019-04-04T11:56:13.543Z,8.50
2019-04-04T12:01:16.796Z,7.62
2019-04-04T12:06:18.112Z,7.65
2019-04-04T12:11:22.492Z,8.90
2019-04-04T12:16:24.712Z,7.12
2019-04-04T12:21:26.282Z,7.80
2019-04-04T12:26:27.617Z,9.75
2019-04-04T12:31:30.430Z,9.93
2019-04-04T12:36:31.943Z,8.53
2019-04-04T12:41:33.370Z,8.43
2019-04-04T12:46:34.783Z,9.28
2019-04-04T12:51:36.213Z,7.70
2019-04-04T12:56:37.518Z,7.80
2019-04-04T13:01:39.209Z,8.35
2019-04-04T13:06:40.772Z,6.50
2019-04-04T13:11:42.233Z,7.20
2019-04-04T13:16:45.471Z,7.78
2019-04-04T13:21:46.999Z,7.87
2019-04-04T13:26:48.509Z,8.18
2019-04-04T13:31:52.067Z,7.58
2019-04-04T13:36:53.522Z,8.68
2019-04-04T13:41:54.861Z,6.60
2019-04-04T13:46:57.759Z,7.60
2019-04-04T13:51:59.586Z,7.53
2019-04-04T13:57:01.326Z,7.42
2019-04-04T14:02:03.447Z,6.42
2019-04-04T14:07:05.417Z,8.33
2019-04-04T14:12:25.663Z,8.18
2019-04-04T14:17:27.205Z,8.00
2019-04-04T14:22:28.799Z,7.25
2019-04-04T14:27:30.230Z,6.67
2019-04-04T14:32:31.774Z,6.10
2019-04-04T14:37:33.648Z,6.70
2019-04-04T14:42:35.076Z,6.30
2019-04-04T14:47:36.965Z,8.18
2019-04-04T14:52:39.597Z,7.53
2019-04-04T14:57:41.822Z,6.30
2019-04-04T15:02:43.472Z,8.90
2019-04-04T15:07:45.003Z,8.08
2019-04-04T15:12:46.501Z,6.62
2019-04-04T15:17:48.313Z,6.47
2019-04-04T15:22:50.107Z,6.70
2019-04-04T15:27:51.817Z,7.35
2019-04-04T15:32:53.463Z,8.03
2019-04-04T15:37:55.102Z,8.48
2019-04-04T15:42:56.536Z,8.48
2019-04-04T15:47:57.997Z,7.17
2019-04-04T15:52:59.501Z,6.55
2019-04-04T15:58:01.165Z,6.85
2019-04-04T16:03:02.873Z,5.75
2019-04-04T16:08:04.646Z,6.12
2019-04-04T16:13:06.090Z,5.10
2019-04-04T16:18:07.527Z,5.35
2019-04-04T16:23:09.324Z,6.42
2019-04-04T16:28:10.897Z,7.72
2019-04-04T16:33:12.385Z,7.00
2019-04-04T16:38:13.786Z,5.80
2019-04-04T16:43:15.214Z,8.83
2019-04-04T16:48:16.661Z,5.92
2019-04-04T16:53:18.050Z,8.33
2019-04-04T16:58:19.567Z,7.85
2019-04-04T17:03:40.237Z,8.03
2019-04-04T17:08:42.151Z,7.40
2019-04-04T17:13:43.984Z,9.50
2019-04-04T17:18:45.545Z,9.25
2019-04-04T17:23:47.379Z,15.20
2019-04-04T17:28:49.128Z,15.95
2019-04-04T17:33:51.600Z,22.05
2019-04-04T17:38:55.060Z,18.23
2019-04-04T17:43:56.855Z,22.37
2019-04-04T17:49:17.017Z,24.23
2019-04-04T17:54:18.867Z,26.15
2019-04-04T17:59:20.322Z,26.15
2019-04-04T18:04:21.842Z,32.08
2019-04-04T18:09:31.716Z,26.82
2019-04-04T18:14:27.263Z,29.00
2019-04-04T18:19:30.726Z,27.93
2019-04-04T18:24:32.283Z,30.32
2019-04-04T18:29:34.190Z,32.75
2019-04-04T18:34:35.936Z,32.90
2019-04-04T18:39:38.057Z,34.20
2019-04-04T18:44:39.579Z,31.55
2019-04-04T18:49:41.149Z,35.55
2019-04-04T18:54:42.899Z,35.23
2019-04-04T18:59:44.452Z,39.80
2019-04-04T19:04:46.021Z,42.40
2019-04-04T19:09:47.591Z,64.50
2019-04-04T19:14:50.723Z,40.45
2019-04-04T19:19:52.227Z,46.08
2019-04-04T19:24:53.782Z,40.12
2019-04-04T19:29:55.641Z,43.48
2019-04-04T19:34:56.996Z,42.23
2019-04-04T19:39:58.549Z,41.25
2019-04-04T19:44:59.941Z,41.95
2019-04-04T19:50:01.692Z,43.33
2019-04-04T19:55:05.096Z,45.03
2019-04-04T20:00:11.003Z,47.55
2019-04-04T20:05:15.473Z,43.30
2019-04-04T20:10:17.022Z,47.38
2019-04-04T20:15:19.402Z,47.40
2019-04-04T20:20:20.726Z,45.52
2019-04-04T20:25:22.169Z,47.75
2019-04-04T20:30:36.034Z,49.53
2019-04-04T20:35:37.459Z,49.25
2019-04-04T20:40:38.858Z,47.98
2019-04-04T20:45:40.436Z,48.50
2019-04-04T20:50:41.888Z,49.75
2019-04-04T20:55:43.350Z,49.53
2019-04-04T21:00:44.664Z,49.10
2019-04-04T21:05:45.966Z,51.98
2019-04-04T21:10:47.595Z,53.85
2019-04-04T21:16:13.727Z,51.95
2019-04-04T21:21:15.395Z,53.78
2019-04-04T21:26:16.965Z,56.80
2019-04-04T21:31:20.534Z,55.35
2019-04-04T21:36:22.142Z,56.18
2019-04-04T21:41:23.490Z,53.45
2019-04-04T21:46:24.928Z,57.90
2019-04-04T21:51:26.374Z,58.65
2019-04-04T21:56:27.786Z,56.53
2019-04-04T22:01:29.439Z,57.60
2019-04-04T22:06:30.854Z,61.13
2019-04-04T22:11:32.396Z,58.25
2019-04-04T22:16:34.151Z,61.08
2019-04-04T22:21:35.608Z,61.63
2019-04-04T22:26:37.027Z,57.13
2019-04-04T22:31:38.708Z,59.42
2019-04-04T22:36:40.242Z,62.55
2019-04-04T22:41:41.650Z,61.60
2019-04-04T22:46:43.189Z,68.45
2019-04-04T22:51:44.561Z,67.70
2019-04-04T22:56:45.984Z,65.62
2019-04-04T23:01:47.533Z,64.92
2019-04-04T23:06:49.160Z,68.85
2019-04-04T23:11:51.121Z,65.52
2019-04-04T23:16:52.575Z,67.47
2019-04-04T23:21:54.563Z,73.12
2019-04-04T23:26:55.967Z,63.33
2019-04-04T23:31:57.304Z,68.92
2019-04-04T23:36:58.711Z,70.20
2019-04-04T23:42:00.021Z,71.00
2019-04-04T23:47:01.338Z,74.42
2019-04-04T23:52:02.972Z,70.72
2019-04-04T23:57:04.376Z,71.85
